createdAt,value
2023-04-29T00:01:30.958Z,7.93
2023-04-29T00:04:15.093Z,7.98
2023-04-29T00:06:59.437Z,7.71
2023-04-29T00:09:43.418Z,7.60
2023-04-29T00:12:28.454Z,7.85
2023-04-29T00:15:12.839Z,7.80
2023-04-29T00:17:58.439Z,7.48
2023-04-29T00:20:43.601Z,7.80
2023-04-29T00:23:27.627Z,7.36
2023-04-29T00:26:11.871Z,7.49
2023-04-29T00:28:57.011Z,7.77
2023-04-29T00:31:41.107Z,7.28
2023-04-29T00:34:26.888Z,7.65
2023-04-29T00:37:10.870Z,7.46
2023-04-29T00:39:54.935Z,7.41
2023-04-29T00:42:39.131Z,6.90
2023-04-29T00:45:23.107Z,7.12
2023-04-29T00:48:08.027Z,6.98
2023-04-29T00:50:54.007Z,6.86
2023-04-29T00:53:38.719Z,6.83
2023-04-29T00:56:23.199Z,7.25
2023-04-29T00:59:09.503Z,6.78
2023-04-29T01:01:54.199Z,6.94
2023-04-29T01:04:38.430Z,6.75
2023-04-29T01:07:32.537Z,6.66
2023-04-29T01:10:24.098Z,6.49
2023-04-29T01:13:14.594Z,6.67
2023-04-29T01:16:04.032Z,6.77
2023-04-29T01:18:54.185Z,6.59
2023-04-29T01:21:48.803Z,6.74
2023-04-29T01:24:34.602Z,6.52
2023-04-29T01:27:27.526Z,6.63
2023-04-29T01:30:29.056Z,6.52
2023-04-29T01:33:21.399Z,6.33
2023-04-29T01:36:18.415Z,6.49
2023-04-29T01:39:10.225Z,6.44
2023-04-29T01:42:01.326Z,6.63
2023-04-29T01:44:51.277Z,6.27
2023-04-29T01:47:39.248Z,6.37
2023-04-29T01:50:23.534Z,6.38
2023-04-29T01:53:08.486Z,6.06
2023-04-29T01:55:52.494Z,6.11
2023-04-29T01:58:40.689Z,6.04
2023-04-29T02:01:43.107Z,6.15
2023-04-29T02:04:28.706Z,6.33
2023-04-29T02:07:12.957Z,6.23
2023-04-29T02:09:57.240Z,6.10
2023-04-29T02:12:41.645Z,6.09
2023-04-29T02:15:47.311Z,5.66
2023-04-29T02:18:31.928Z,5.78
2023-04-29T02:21:16.098Z,5.93
2023-04-29T02:24:00.205Z,5.81
2023-04-29T02:26:44.253Z,5.73
2023-04-29T02:29:30.064Z,6.00
2023-04-29T02:32:16.369Z,5.70
2023-04-29T02:35:01.042Z,5.74
2023-04-29T02:37:47.905Z,5.95
2023-04-29T02:40:31.903Z,6.02
2023-04-29T02:43:16.419Z,5.50
2023-04-29T02:46:02.305Z,5.52
2023-04-29T02:48:47.865Z,5.53
2023-04-29T02:51:32.665Z,5.46
2023-04-29T02:54:17.684Z,5.35
2023-04-29T02:57:02.144Z,5.88
2023-04-29T02:59:46.231Z,5.71
2023-04-29T03:02:30.410Z,5.78
2023-04-29T03:05:17.732Z,5.51
2023-04-29T03:08:02.009Z,5.26
2023-04-29T03:10:46.785Z,5.12
2023-04-29T03:13:30.928Z,5.39
2023-04-29T03:16:17.066Z,5.56
2023-04-29T03:19:01.645Z,5.76
2023-04-29T03:21:47.181Z,5.85
2023-04-29T03:24:31.287Z,5.77
2023-04-29T03:27:15.916Z,5.74
2023-04-29T03:30:00.293Z,5.52
2023-04-29T03:32:44.595Z,5.46
2023-04-29T03:35:28.833Z,5.23
2023-04-29T03:38:37.019Z,5.85
2023-04-29T03:41:23.464Z,5.64
2023-04-29T03:44:07.783Z,5.67
2023-04-29T03:46:51.978Z,6.08
2023-04-29T03:49:36.061Z,6.06
2023-04-29T03:52:21.088Z,6.22
2023-04-29T03:55:09.833Z,5.84
2023-04-29T03:57:54.307Z,5.88
2023-04-29T04:00:39.477Z,6.13
2023-04-29T04:03:29.375Z,6.29
2023-04-29T04:06:15.205Z,6.42
2023-04-29T04:08:59.769Z,6.29
2023-04-29T04:11:48.215Z,6.36
2023-04-29T04:14:32.639Z,6.94
2023-04-29T04:17:16.992Z,7.04
2023-04-29T04:20:01.768Z,7.28
2023-04-29T04:22:47.343Z,7.36
2023-04-29T04:25:39.529Z,7.23
2023-04-29T04:28:42.709Z,7.49
2023-04-29T04:31:32.960Z,7.27
2023-04-29T04:34:17.228Z,7.77
2023-04-29T04:37:03.843Z,7.77
2023-04-29T04:39:49.443Z,8.12
2023-04-29T04:42:34.316Z,8.01
2023-04-29T04:45:19.872Z,7.85
2023-04-29T04:48:08.002Z,8.33
2023-04-29T04:50:55.118Z,8.09
2023-04-29T04:53:39.612Z,8.10
2023-04-29T04:56:27.739Z,8.35
2023-04-29T04:59:11.850Z,8.62
2023-04-29T05:01:59.275Z,8.76
2023-04-29T05:04:43.455Z,8.37
2023-04-29T05:07:28.617Z,8.79
2023-04-29T05:10:18.019Z,8.39
2023-04-29T05:13:06.621Z,8.86
2023-04-29T05:15:51.624Z,9.23
2023-04-29T05:18:44.349Z,8.90
2023-04-29T05:21:29.056Z,9.00
2023-04-29T05:24:13.198Z,9.16
2023-04-29T05:26:57.519Z,8.97
2023-04-29T05:29:41.584Z,9.11
2023-04-29T05:32:26.177Z,8.76
2023-04-29T05:35:11.920Z,9.23
2023-04-29T05:37:55.944Z,9.54
2023-04-29T05:41:02.868Z,9.31
2023-04-29T05:44:06.038Z,9.16
2023-04-29T05:46:51.820Z,9.37
2023-04-29T05:49:36.567Z,9.53
2023-04-29T05:52:22.153Z,9.70
2023-04-29T05:55:07.730Z,9.83
2023-04-29T05:57:51.755Z,9.73
2023-04-29T06:00:35.846Z,10.05
2023-04-29T06:03:27.970Z,10.03
2023-04-29T06:06:32.296Z,10.13
2023-04-29T06:09:28.394Z,10.33
2023-04-29T06:12:17.168Z,10.33
2023-04-29T06:15:03.441Z,10.64
2023-04-29T06:17:50.086Z,10.46
2023-04-29T06:20:36.086Z,10.68
2023-04-29T06:23:21.473Z,10.84
2023-04-29T06:26:09.650Z,10.76
2023-04-29T06:28:54.391Z,11.21
2023-04-29T06:31:38.670Z,10.92
2023-04-29T06:34:22.786Z,11.30
2023-04-29T06:37:37.545Z,11.29
2023-04-29T06:40:29.133Z,11.77
2023-04-29T06:43:49.937Z,11.57
2023-04-29T06:46:34.372Z,11.55
2023-04-29T06:49:26.224Z,11.52
2023-04-29T06:52:10.484Z,11.45
2023-04-29T06:54:54.644Z,11.26
2023-04-29T06:57:38.579Z,11.76
2023-04-29T07:00:24.893Z,11.68
2023-04-29T07:03:12.532Z,12.18
2023-04-29T07:05:56.754Z,11.34
2023-04-29T07:08:41.038Z,11.64
2023-04-29T07:11:27.115Z,11.88
2023-04-29T07:14:11.209Z,11.90
2023-04-29T07:16:56.802Z,11.94
2023-04-29T07:19:41.237Z,11.96
2023-04-29T07:22:26.055Z,12.03
2023-04-29T07:25:11.282Z,11.89
2023-04-29T07:27:55.914Z,12.07
2023-04-29T07:30:42.198Z,12.15
2023-04-29T07:33:27.785Z,12.50
2023-04-29T07:36:12.952Z,12.84
2023-04-29T07:38:57.638Z,12.61
2023-04-29T07:41:41.785Z,12.43
2023-04-29T07:44:25.932Z,11.94
2023-04-29T07:47:10.116Z,12.72
2023-04-29T07:49:55.732Z,12.48
2023-04-29T07:52:39.895Z,12.63
2023-04-29T07:55:23.992Z,12.60
2023-04-29T07:58:08.303Z,12.69
2023-04-29T08:00:52.622Z,12.82
2023-04-29T08:03:39.744Z,12.24
2023-04-29T08:06:26.343Z,12.46
2023-04-29T08:09:10.949Z,12.41
2023-04-29T08:11:58.286Z,12.81
2023-04-29T08:14:42.685Z,12.81
2023-04-29T08:17:26.747Z,12.80
2023-04-29T08:20:11.888Z,12.68
2023-04-29T08:22:59.533Z,13.23
2023-04-29T08:25:44.754Z,13.07
2023-04-29T08:28:29.107Z,12.44
2023-04-29T08:31:18.629Z,13.58
2023-04-29T08:34:02.981Z,13.78
2023-04-29T08:36:47.107Z,13.06
2023-04-29T08:39:32.687Z,13.02
2023-04-29T08:42:17.139Z,13.07
2023-04-29T08:45:01.831Z,13.39
2023-04-29T08:47:51.644Z,13.16
2023-04-29T08:50:39.670Z,13.48
2023-04-29T08:53:23.946Z,13.34
2023-04-29T08:56:17.838Z,13.01
2023-04-29T08:59:04.468Z,13.12
2023-04-29T09:01:53.125Z,13.38
2023-04-29T09:04:48.732Z,13.98
2023-04-29T09:07:34.530Z,13.81
2023-04-29T09:10:19.568Z,13.93
2023-04-29T09:13:05.199Z,13.78
2023-04-29T09:15:49.257Z,13.79
2023-04-29T09:18:48.019Z,13.53
2023-04-29T09:21:32.413Z,13.79
2023-04-29T09:24:26.974Z,13.55
2023-04-29T09:27:11.354Z,13.75
2023-04-29T09:30:03.423Z,14.23
2023-04-29T09:33:05.846Z,14.33
2023-04-29T09:35:50.453Z,14.47
2023-04-29T09:38:34.549Z,14.57
2023-04-29T09:41:20.164Z,13.86
2023-04-29T09:44:08.217Z,14.62
2023-04-29T09:46:58.763Z,14.56
2023-04-29T09:49:45.618Z,14.59
2023-04-29T09:52:41.738Z,14.51
2023-04-29T09:55:26.891Z,14.59
2023-04-29T09:58:30.166Z,14.91
2023-04-29T10:01:18.068Z,14.16
2023-04-29T10:04:05.726Z,14.39
2023-04-29T10:06:51.466Z,14.49
2023-04-29T10:09:39.159Z,14.73
2023-04-29T10:12:23.845Z,15.22
2023-04-29T10:15:18.009Z,15.08
2023-04-29T10:18:13.315Z,14.84
2023-04-29T10:21:03.143Z,14.55
2023-04-29T10:23:47.802Z,14.62
2023-04-29T10:26:32.490Z,14.99
2023-04-29T10:29:18.673Z,14.69
2023-04-29T10:32:03.723Z,14.75
2023-04-29T10:34:48.124Z,15.15
2023-04-29T10:37:34.347Z,15.21
2023-04-29T10:40:21.403Z,15.45
2023-04-29T10:43:05.869Z,15.31
2023-04-29T10:45:49.930Z,15.02
2023-04-29T10:48:34.046Z,15.46
2023-04-29T10:51:31.779Z,15.23
2023-04-29T10:54:21.183Z,15.18
2023-04-29T10:57:05.278Z,15.29
2023-04-29T10:59:49.315Z,15.69
2023-04-29T11:02:33.304Z,16.02
2023-04-29T11:05:18.718Z,16.22
2023-04-29T11:08:12.786Z,15.70
2023-04-29T11:11:02.814Z,15.96
2023-04-29T11:13:48.150Z,16.11
2023-04-29T11:16:32.210Z,16.02
2023-04-29T11:19:17.143Z,15.69
2023-04-29T11:22:17.811Z,16.16
2023-04-29T11:25:04.140Z,16.12
2023-04-29T11:27:55.580Z,15.56
2023-04-29T11:30:40.269Z,16.15
2023-04-29T11:33:24.280Z,16.14
2023-04-29T11:36:09.358Z,16.36
2023-04-29T11:38:53.322Z,15.85
2023-04-29T11:41:37.703Z,15.81
2023-04-29T11:44:24.490Z,15.93
2023-04-29T11:47:09.142Z,16.16
2023-04-29T11:49:53.501Z,16.13
2023-04-29T11:52:38.899Z,16.18
2023-04-29T11:55:22.848Z,16.22
2023-04-29T11:58:06.770Z,16.11
2023-04-29T12:00:52.535Z,16.32
2023-04-29T12:03:36.904Z,16.27
2023-04-29T12:06:21.013Z,16.24
2023-04-29T12:09:05.367Z,16.82
2023-04-29T12:11:51.082Z,16.61
2023-04-29T12:14:35.214Z,16.83
2023-04-29T12:17:21.445Z,16.98
2023-04-29T12:20:06.381Z,17.26
2023-04-29T12:22:50.536Z,16.78
2023-04-29T12:25:34.682Z,16.78
2023-04-29T12:28:18.894Z,16.41
2023-04-29T12:31:03.605Z,16.50
2023-04-29T12:33:49.082Z,16.52
2023-04-29T12:36:33.334Z,16.47
2023-04-29T12:39:17.925Z,16.82
2023-04-29T12:42:03.278Z,16.26
2023-04-29T12:44:48.350Z,16.87
2023-04-29T12:47:34.805Z,17.15
2023-04-29T12:50:20.619Z,17.15
2023-04-29T12:53:05.341Z,16.90
2023-04-29T12:55:50.215Z,16.87
2023-04-29T12:58:35.135Z,16.40
2023-04-29T13:01:19.363Z,16.25
2023-04-29T13:04:05.405Z,16.68
2023-04-29T13:06:54.544Z,16.62
2023-04-29T13:09:41.663Z,16.73
2023-04-29T13:12:25.981Z,17.23
2023-04-29T13:15:11.585Z,17.53
2023-04-29T13:17:55.833Z,17.11
2023-04-29T13:20:42.532Z,16.95
2023-04-29T13:23:28.381Z,16.89
2023-04-29T13:26:12.617Z,16.69
2023-04-29T13:28:56.784Z,16.71
2023-04-29T13:31:40.917Z,17.31
2023-04-29T13:34:25.070Z,17.55
2023-04-29T13:37:09.115Z,17.19
2023-04-29T13:39:57.508Z,17.56
2023-04-29T13:42:48.923Z,17.47
2023-04-29T13:45:38.873Z,17.28
2023-04-29T13:48:55.033Z,17.39
2023-04-29T13:57:55.306Z,17.75
2023-04-29T14:00:25.079Z,17.88
2023-04-29T14:03:13.930Z,18.23
2023-04-29T14:05:57.924Z,17.91
2023-04-29T14:08:42.052Z,18.34
2023-04-29T14:11:26.427Z,17.93
2023-04-29T14:14:12.050Z,17.92
2023-04-29T14:16:56.072Z,18.08
2023-04-29T14:19:40.214Z,17.91
2023-04-29T14:22:24.257Z,18.23
2023-04-29T14:25:09.645Z,18.38
2023-04-29T14:27:53.713Z,18.16
2023-04-29T14:30:39.049Z,17.89
2023-04-29T14:33:23.105Z,17.57
2023-04-29T14:36:08.534Z,17.39
2023-04-29T14:38:52.604Z,17.72
2023-04-29T14:41:36.621Z,17.43
2023-04-29T14:44:20.655Z,17.87
2023-04-29T14:47:06.206Z,17.81
2023-04-29T14:49:50.373Z,17.41
2023-04-29T14:52:34.448Z,17.80
2023-04-29T14:55:18.612Z,17.72
2023-04-29T14:58:05.119Z,17.97
2023-04-29T15:00:49.507Z,18.03
2023-04-29T15:06:24.261Z,18.36
2023-04-29T15:09:08.488Z,18.26
2023-04-29T15:11:52.545Z,18.34
2023-04-29T15:14:36.748Z,18.76
2023-04-29T15:17:21.048Z,19.04
2023-04-29T15:20:08.049Z,19.15
2023-04-29T15:22:52.155Z,18.15
2023-04-29T15:25:36.625Z,18.06
2023-04-29T15:28:21.019Z,18.15
2023-04-29T15:31:05.679Z,17.42
2023-04-29T15:33:49.914Z,16.56
2023-04-29T15:36:35.488Z,16.41
2023-04-29T15:39:19.527Z,16.91
2023-04-29T15:42:04.046Z,17.17
2023-04-29T15:44:48.141Z,16.79
2023-04-29T15:47:33.925Z,16.37
2023-04-29T15:50:18.196Z,16.58
2023-04-29T15:53:03.663Z,16.46
2023-04-29T15:55:47.594Z,16.67
2023-04-29T15:58:31.631Z,17.09
2023-04-29T16:01:16.071Z,16.92
2023-04-29T16:04:00.231Z,16.80
2023-04-29T16:06:44.510Z,16.78
2023-04-29T16:09:30.231Z,16.42
2023-04-29T16:12:14.434Z,16.07
2023-04-29T16:14:58.546Z,16.18
2023-04-29T16:17:42.660Z,15.87
2023-04-29T16:20:27.204Z,15.09
2023-04-29T16:23:11.227Z,15.68
2023-04-29T16:25:56.859Z,15.68
2023-04-29T16:28:41.134Z,15.20
2023-04-29T16:31:25.289Z,15.01
2023-04-29T16:34:09.364Z,15.04
2023-04-29T16:36:53.507Z,14.81
2023-04-29T16:39:37.556Z,15.02
2023-04-29T16:42:22.936Z,14.51
2023-04-29T16:45:08.142Z,14.41
2023-04-29T16:47:52.365Z,14.03
2023-04-29T16:50:37.729Z,14.07
2023-04-29T16:53:21.794Z,13.29
2023-04-29T16:56:06.294Z,13.82
2023-04-29T16:58:51.944Z,13.56
2023-04-29T17:01:35.931Z,13.32
2023-04-29T17:04:20.054Z,13.41
2023-04-29T17:07:04.242Z,13.83
2023-04-29T17:09:48.600Z,13.21
2023-04-29T17:12:33.189Z,13.41
2023-04-29T17:15:18.649Z,13.57
2023-04-29T17:18:03.133Z,13.20
2023-04-29T17:20:48.852Z,13.33
2023-04-29T17:23:34.629Z,13.46
2023-04-29T17:26:18.520Z,13.47
2023-04-29T17:29:02.547Z,12.96
2023-04-29T17:31:54.503Z,12.33
2023-04-29T17:34:38.853Z,11.73
2023-04-29T17:37:25.193Z,11.98
2023-04-29T17:40:10.723Z,11.45
2023-04-29T17:42:54.929Z,11.32
2023-04-29T17:45:41.694Z,11.28
2023-04-29T17:48:27.264Z,10.98
2023-04-29T17:51:11.319Z,10.98
2023-04-29T17:53:55.408Z,10.56
2023-04-29T17:56:39.588Z,10.82
2023-04-29T17:59:23.760Z,10.79
2023-04-29T18:02:08.280Z,10.39
2023-04-29T18:04:54.087Z,10.14
2023-04-29T18:07:38.134Z,10.20
2023-04-29T18:10:22.200Z,10.44
2023-04-29T18:13:06.174Z,10.26
2023-04-29T18:15:50.166Z,10.05
2023-04-29T18:18:34.690Z,10.20
2023-04-29T18:21:23.403Z,10.06
2023-04-29T18:24:08.113Z,10.13
2023-04-29T18:26:52.181Z,9.91
2023-04-29T18:29:36.129Z,9.31
2023-04-29T18:32:20.187Z,9.65
2023-04-29T18:35:04.289Z,9.49
2023-04-29T18:37:49.887Z,9.73
2023-04-29T18:40:33.899Z,9.53
2023-04-29T18:43:22.502Z,9.60
2023-04-29T18:46:06.592Z,9.37
2023-04-29T18:48:50.968Z,9.26
2023-04-29T18:51:35.054Z,9.14
2023-04-29T18:54:20.579Z,9.62
2023-04-29T18:57:05.175Z,9.28
2023-04-29T18:59:49.110Z,9.15
2023-04-29T19:02:33.400Z,9.48
2023-04-29T19:05:17.550Z,9.65
2023-04-29T19:08:01.579Z,9.16
2023-04-29T19:10:47.086Z,9.47
2023-04-29T19:13:31.098Z,9.33
2023-04-29T19:16:15.158Z,9.25
2023-04-29T19:18:59.369Z,8.91
2023-04-29T19:21:43.789Z,8.52
2023-04-29T19:24:27.889Z,8.76
2023-04-29T19:27:13.392Z,8.84
2023-04-29T19:29:57.438Z,8.71
2023-04-29T19:32:41.519Z,8.55
2023-04-29T19:35:25.667Z,8.60
2023-04-29T19:38:09.722Z,8.66
2023-04-29T19:40:55.969Z,8.67
2023-04-29T19:43:41.248Z,8.95
2023-04-29T19:46:25.507Z,8.90
2023-04-29T19:49:09.796Z,8.99
2023-04-29T19:51:54.256Z,8.78
2023-04-29T19:54:38.818Z,8.78
2023-04-29T19:57:22.778Z,8.68
2023-04-29T20:00:09.667Z,8.46
2023-04-29T20:02:53.815Z,8.45
2023-04-29T20:05:37.853Z,8.46
2023-04-29T20:08:21.939Z,8.36
2023-04-29T20:11:05.968Z,8.26
2023-04-29T20:13:50.330Z,8.37
2023-04-29T20:16:35.871Z,8.66
2023-04-29T20:19:19.829Z,8.47
2023-04-29T20:22:03.878Z,8.67
2023-04-29T20:24:47.820Z,8.34
2023-04-29T20:27:31.955Z,8.54
2023-04-29T20:30:15.977Z,8.32
2023-04-29T20:33:01.986Z,8.49
2023-04-29T20:35:45.995Z,8.40
2023-04-29T20:38:30.056Z,8.41
2023-04-29T20:41:14.160Z,8.14
2023-04-29T20:43:58.757Z,8.01
2023-04-29T20:46:46.162Z,8.53
2023-04-29T20:49:31.567Z,8.47
2023-04-29T20:52:15.800Z,7.95
2023-04-29T20:55:00.002Z,8.09
2023-04-29T20:57:43.981Z,7.78
2023-04-29T21:00:28.085Z,8.07
2023-04-29T21:03:12.134Z,8.08
2023-04-29T21:05:58.229Z,8.38
2023-04-29T21:08:43.067Z,8.21
2023-04-29T21:11:27.182Z,7.86
2023-04-29T21:14:13.180Z,7.20
2023-04-29T21:16:57.360Z,7.53
2023-04-29T21:19:41.408Z,7.69
2023-04-29T21:22:26.830Z,7.90
2023-04-29T21:25:10.895Z,8.30
2023-04-29T21:27:54.864Z,8.50
2023-04-29T21:30:38.890Z,8.18
2023-04-29T21:33:22.887Z,8.17
2023-04-29T21:36:07.170Z,8.14
2023-04-29T21:38:52.966Z,8.08
2023-04-29T21:41:40.011Z,7.75
2023-04-29T21:44:24.176Z,7.77
2023-04-29T21:47:09.105Z,8.38
2023-04-29T21:49:55.389Z,7.89
2023-04-29T21:52:39.609Z,7.97
2023-04-29T21:55:25.304Z,7.89
2023-04-29T21:58:09.340Z,7.78
2023-04-29T22:01:01.613Z,8.38
2023-04-29T22:03:45.854Z,8.55
2023-04-29T22:06:29.818Z,8.45
2023-04-29T22:09:13.807Z,8.56
2023-04-29T22:11:59.214Z,8.50
2023-04-29T22:14:43.263Z,8.57
2023-04-29T22:17:27.234Z,8.62
2023-04-29T22:20:13.974Z,8.66
2023-04-29T22:22:58.185Z,8.51
2023-04-29T22:25:42.170Z,8.54
2023-04-29T22:28:27.617Z,8.92
2023-04-29T22:31:11.680Z,8.91
2023-04-29T22:33:55.584Z,8.83
2023-04-29T22:36:40.159Z,8.38
2023-04-29T22:39:24.074Z,8.50
2023-04-29T22:42:08.122Z,8.93
2023-04-29T22:44:53.671Z,8.63
2023-04-29T22:47:37.756Z,8.77
2023-04-29T22:50:21.786Z,8.90
2023-04-29T22:53:05.727Z,8.90
2023-04-29T22:55:53.281Z,8.88
2023-04-29T22:58:37.270Z,8.61
2023-04-29T23:01:22.725Z,9.05
2023-04-29T23:04:07.019Z,9.01
2023-04-29T23:06:51.086Z,8.92
2023-04-29T23:09:35.122Z,8.35
2023-04-29T23:12:19.902Z,8.71
2023-04-29T23:15:04.502Z,8.62
2023-04-29T23:17:50.174Z,8.47
2023-04-29T23:20:34.140Z,8.50
2023-04-29T23:23:18.163Z,8.74
2023-04-29T23:26:02.130Z,8.57
2023-04-29T23:28:46.215Z,8.43
2023-04-29T23:31:30.251Z,8.47
2023-04-29T23:34:17.995Z,8.49
2023-04-29T23:37:02.599Z,8.45
2023-04-29T23:39:46.602Z,8.22
2023-04-29T23:42:30.500Z,8.51
2023-04-29T23:45:14.500Z,8.57
2023-04-29T23:47:58.470Z,8.65
2023-04-29T23:50:43.893Z,8.38
2023-04-29T23:53:27.864Z,7.94
2023-04-29T23:56:12.061Z,8.51
2023-04-29T23:58:56.037Z,8.50
